^^

..:: Storico WU ::..




Lo storico viene creato da WUnderground con i dati che la stazione Meteomincio invia al loro server. L' aggiornamento viene fatto ogni 5 minuti circa, tuttavia possono esserci intervalli pi¨ ampi a causa di errori, interruzioni di servizio o problemi nell' invio tramite FTP.


Storico stazione MeteoMincio
Giorno Sommario per Marzo 23, 2022 Unità:  Inglese    Metrico   Entrambi
Giorno Settimana Mese Anno
  Max: Min: Media:
Temperatura: 67.1 °F 30.9 °F 49.3 °F
Dew Point: 35.1 °F 24.1 °F 29.3 °F
Umidità: 76% 24.5% 50%
Velocità vento: 7mph 0mph 3mph
Raffica: 13mph - -
Direzione- - West
Pressione: 30.5 in 30.4 in -
Precipitazioni: 0 in    
 
 
Tabulato Dati per Marzo 23, 2022
Ora Temperatura Dew Point Pressione Direzione Velocità vento Raffica Umidità Intensità pioggia (oraria) Info solare Situazione
00:04 37.9 °F 26.4 °F 30.5 in WNW 0.6 mph 2.3 mph 63% 0 in 0 W/m2
00:09 37.9 °F 26.4 °F 30.5 in WNW 0.6 mph 2 mph 63% 0 in 0 W/m2
00:14 37.6 °F 26.2 °F 30.5 in WNW 0.5 mph 1.2 mph 63.3% 0 in 0 W/m2
00:19 37.2 °F 25.7 °F 30.5 in WNW 0.6 mph 2 mph 62.8% 0 in 0 W/m2
00:24 37.2 °F 25.5 °F 30.5 in WNW 1.1 mph 2.3 mph 62.1% 0 in 0 W/m2
00:29 37.2 °F 25.7 °F 30.5 in WNW 0.9 mph 2.3 mph 62.9% 0 in 0 W/m2
00:34 37 °F 25.9 °F 30.5 in WNW 0.5 mph 2 mph 63.9% 0 in 0 W/m2
00:39 36.9 °F 25.3 °F 30.5 in WNW 0.9 mph 2.3 mph 63% 0 in 0 W/m2
00:44 36.7 °F 25.3 °F 30.5 in WNW 1.2 mph 2.3 mph 63% 0 in 0 W/m2
00:49 35.8 °F 24.8 °F 30.5 in WSW 2.7 mph 4 mph 64.3% 0 in 0 W/m2
00:54 35.1 °F 24.8 °F 30.5 in WSW 2.7 mph 4 mph 65.6% 0 in 0 W/m2
00:59 35.2 °F 24.8 °F 30.5 in WSW 2.1 mph 3.5 mph 65.2% 0 in 0 W/m2
01:04 35.6 °F 25 °F 30.5 in WSW 1.2 mph 3 mph 65% 0 in 0 W/m2
01:09 36 °F 25.2 °F 30.5 in WSW 0.2 mph 2 mph 64.3% 0 in 0 W/m2
01:14 36.3 °F 25.3 °F 30.5 in WSW 1.2 mph 2.3 mph 64% 0 in 0 W/m2
01:19 36.5 °F 25.3 °F 30.5 in WSW 1.8 mph 3 mph 63.5% 0 in 0 W/m2
01:24 36.1 °F 25.2 °F 30.5 in WSW 1.8 mph 3.5 mph 64% 0 in 0 W/m2
01:29 36 °F 25.2 °F 30.5 in WSW 1.9 mph 3.5 mph 64.5% 0 in 0 W/m2
01:34 35.8 °F 25.2 °F 30.5 in WSW 2.1 mph 3.5 mph 65% 0 in 0 W/m2
01:39 35.1 °F 24.6 °F 30.5 in WSW 1.7 mph 3.5 mph 65.6% 0 in 0 W/m2
01:44 35.1 °F 24.8 °F 30.5 in WSW 1.8 mph 3.5 mph 66% 0 in 0 W/m2
01:49 35.2 °F 25 °F 30.5 in WSW 2.2 mph 3.5 mph 66% 0 in 0 W/m2
01:54 35.4 °F 25.2 °F 30.5 in WSW 1.8 mph 3.5 mph 66% 0 in 0 W/m2
01:59 35.2 °F 25.2 °F 30.5 in SW 2.8 mph 4 mph 66.6% 0 in 0 W/m2
02:04 34.9 °F 25 °F 30.5 in SW 2.7 mph 4 mph 67% 0 in 0 W/m2
02:09 34.9 °F 24.8 °F 30.5 in SW 2.5 mph 4 mph 66.4% 0 in 0 W/m2
02:14 34.9 °F 24.8 °F 30.5 in WSW 3 mph 4 mph 66.5% 0 in 0 W/m2
02:19 34.9 °F 25 °F 30.5 in WSW 2.9 mph 4 mph 67% 0 in 0 W/m2
02:24 35.2 °F 25.3 °F 30.5 in WSW 2.7 mph 4 mph 67% 0 in 0 W/m2
02:29 35.1 °F 25.3 °F 30.5 in WSW 2.8 mph 4 mph 67.5% 0 in 0 W/m2
02:34 34.5 °F 25 °F 30.5 in WSW 3.7 mph 5 mph 68.1% 0 in 0 W/m2
02:39 34 °F 25 °F 30.5 in WSW 3.9 mph 5 mph 69.6% 0 in 0 W/m2
02:44 33.8 °F 25.2 °F 30.5 in WSW 3.3 mph 5 mph 70% 0 in 0 W/m2
02:49 34.2 °F 25.3 °F 30.5 in WSW 3.5 mph 5 mph 70% 0 in 0 W/m2
02:54 34.3 °F 25.5 °F 30.5 in WSW 4.1 mph 6 mph 70% 0 in 0 W/m2
02:59 34.5 °F 25.7 °F 30.5 in WSW 3.9 mph 6 mph 70% 0 in 0 W/m2
03:04 34.5 °F 25.5 °F 30.5 in WSW 4 mph 5 mph 69.6% 0 in 0 W/m2
03:09 34.2 °F 25.2 °F 30.5 in WSW 4.3 mph 6 mph 69.8% 0 in 0 W/m2
03:14 34 °F 25.2 °F 30.5 in WSW 4.5 mph 6 mph 70% 0 in 0 W/m2
03:19 33.8 °F 25.2 °F 30.5 in WSW 4.3 mph 6 mph 70.2% 0 in 0 W/m2
03:24 33.8 °F 25.5 °F 30.5 in West 4.5 mph 6 mph 71.3% 0 in 0 W/m2
03:29 34 °F 25.7 °F 30.5 in West 4 mph 5.8 mph 71% 0 in 0 W/m2
03:34 33.8 °F 25.3 °F 30.5 in WSW 3.3 mph 6 mph 71% 0 in 0 W/m2
03:39 33.4 °F 25.2 °F 30.5 in West 2.7 mph 5 mph 71% 0 in 0 W/m2
03:44 33.3 °F 25 °F 30.5 in West 2.9 mph 4 mph 71% 0 in 0 W/m2
03:49 32.9 °F 24.4 °F 30.5 in WSW 3.8 mph 5 mph 71% 0 in 0 W/m2
03:54 32.5 °F 24.4 °F 30.5 in WSW 3.9 mph 5 mph 71.8% 0 in 0 W/m2
03:59 32.9 °F 25 °F 30.5 in WSW 3.4 mph 5 mph 72% 0 in 0 W/m2
04:04 33.3 °F 25.2 °F 30.5 in WSW 3.8 mph 5 mph 72% 0 in 0 W/m2
04:09 33.4 °F 25.3 °F 30.5 in WSW 3.6 mph 5 mph 72% 0 in 0 W/m2
04:14 33.8 °F 25.5 °F 30.5 in WSW 3.5 mph 5 mph 71.5% 0 in 0 W/m2
04:19 33.8 °F 25.5 °F 30.5 in WSW 4.2 mph 6 mph 71.6% 0 in 0 W/m2
04:24 33.8 °F 25.5 °F 30.5 in WSW 3.8 mph 6 mph 71.4% 0 in 0 W/m2
04:29 33.3 °F 25.2 °F 30.5 in WSW 3.7 mph 6 mph 71.6% 0 in 0 W/m2
04:34 32.9 °F 24.8 °F 30.5 in WSW 3.7 mph 5 mph 72.2% 0 in 0 W/m2
04:39 32.4 °F 24.6 °F 30.5 in WSW 3.5 mph 4.6 mph 73% 0 in 0 W/m2
04:44 32.4 °F 24.6 °F 30.5 in WSW 4 mph 6 mph 73% 0 in 0 W/m2
04:49 32.4 °F 24.8 °F 30.5 in WSW 3.9 mph 6 mph 73% 0 in 0 W/m2
04:54 32.5 °F 24.8 °F 30.5 in WSW 3.7 mph 5 mph 72.9% 0 in 0 W/m2
04:59 32.5 °F 24.6 °F 30.5 in WSW 3.5 mph 5 mph 72% 0 in 0 W/m2
05:04 32.2 °F 24.4 °F 30.5 in WSW 4 mph 5 mph 72.9% 0 in 0 W/m2
05:09 32 °F 24.3 °F 30.5 in WSW 3.5 mph 5 mph 73% 0 in 0 W/m2
05:14 31.6 °F 24.3 °F 30.5 in WSW 4.1 mph 6 mph 73.8% 0 in 0 W/m2
05:19 31.5 °F 24.1 °F 30.5 in WSW 4.3 mph 6 mph 74% 0 in 0 W/m2
05:24 31.3 °F 24.3 °F 30.5 in West 3.7 mph 6 mph 74.8% 0 in 0 W/m2
05:29 31.3 °F 24.3 °F 30.5 in WSW 3.8 mph 5 mph 75% 0 in 0 W/m2
05:34 31.3 °F 24.3 °F 30.5 in WSW 4.1 mph 5 mph 75% 0 in 0 W/m2
05:39 31.1 °F 24.1 °F 30.5 in West 4.2 mph 6 mph 75% 0 in 0 W/m2
05:44 31.3 °F 24.1 °F 30.5 in WSW 4.5 mph 6 mph 74.6% 0 in 0 W/m2
05:49 31.1 °F 24.1 °F 30.5 in WSW 4.2 mph 6 mph 75% 0 in 0 W/m2
05:54 31.1 °F 24.3 °F 30.5 in WSW 4 mph 6 mph 75.4% 0 in 0 W/m2
05:59 30.9 °F 24.1 °F 30.5 in WSW 3.7 mph 6 mph 75.7% 0 in 0 W/m2
06:04 30.9 °F 24.3 °F 30.5 in WSW 3.6 mph 6 mph 76% 0 in 0 W/m2
06:09 31.1 °F 24.4 °F 30.5 in WSW 3.7 mph 5 mph 76% 0 in 0 W/m2
06:14 30.9 °F 24.3 °F 30.5 in West 4.2 mph 5 mph 76% 0 in 0 W/m2
06:19 31.1 °F 24.3 °F 30.5 in WSW 4.7 mph 6 mph 75.8% 0 in 5 W/m2
06:24 31.1 °F 24.3 °F 30.5 in West 3.9 mph 6 mph 75.8% 0 in 7 W/m2
06:29 31.5 °F 24.4 °F 30.5 in West 3.5 mph 6 mph 75.3% 0 in 11 W/m2
06:34 31.5 °F 24.4 °F 30.5 in West 3.4 mph 5 mph 75% 0 in 14 W/m2
06:39 31.5 °F 24.3 °F 30.5 in West 3.2 mph 5 mph 74.6% 0 in 16 W/m2
06:44 31.5 °F 24.4 °F 30.5 in West 3.7 mph 5 mph 74.7% 0 in 21 W/m2
06:49 31.8 °F 24.8 °F 30.5 in West 4.2 mph 5 mph 75% 0 in 28 W/m2
06:54 31.8 °F 24.6 °F 30.5 in WSW 3.4 mph 5 mph 74.8% 0 in 35 W/m2
06:59 32 °F 25.2 °F 30.5 in WSW 4.2 mph 7 mph 75.3% 0 in 44 W/m2
07:04 32.9 °F 25.9 °F 30.5 in WSW 4.8 mph 7 mph 75.1% 0 in 54 W/m2
07:09 33.6 °F 26.4 °F 30.5 in West 4.3 mph 7 mph 74.4% 0 in 67 W/m2
07:14 34.5 °F 26.8 °F 30.5 in West 3.5 mph 7 mph 73.2% 0 in 77 W/m2
07:19 35.1 °F 27.1 °F 30.5 in West 3.1 mph 7 mph 72.8% 0 in 91 W/m2
07:24 35.6 °F 27.5 °F 30.5 in West 3.1 mph 5 mph 71.9% 0 in 107 W/m2
07:29 36.5 °F 28 °F 30.5 in West 3.2 mph 5 mph 71% 0 in 123 W/m2
07:34 37.2 °F 28.6 °F 30.5 in West 3.2 mph 5 mph 70.9% 0 in 139 W/m2
07:39 37.8 °F 28.9 °F 30.5 in WSW 3 mph 5 mph 70.7% 0 in 155 W/m2
07:44 37.9 °F 29.5 °F 30.5 in WSW 3.4 mph 6 mph 71% 0 in 171 W/m2
07:49 38.5 °F 29.7 °F 30.5 in WSW 4 mph 6 mph 70.5% 0 in 183 W/m2
07:54 38.8 °F 30 °F 30.5 in WSW 3.5 mph 6 mph 70.6% 0 in 197 W/m2
07:59 39.6 °F 30.6 °F 30.5 in WSW 2.9 mph 5 mph 70.3% 0 in 202 W/m2
08:04 40.3 °F 30.9 °F 30.5 in WSW 3.7 mph 6 mph 68.9% 0 in 209 W/m2
08:09 41.2 °F 31.6 °F 30.5 in West 4.1 mph 6 mph 68.7% 0 in 239 W/m2
08:14 42.1 °F 31.8 °F 30.5 in West 3.9 mph 8.1 mph 67% 0 in 253 W/m2
08:19 42.8 °F 31.8 °F 30.5 in West 3.7 mph 8 mph 65% 0 in 267 W/m2
08:24 43.5 °F 32.4 °F 30.5 in West 4.7 mph 7 mph 64.2% 0 in 279 W/m2
08:29 44.2 °F 32.5 °F 30.5 in West 5.4 mph 9.2 mph 63.6% 0 in 292 W/m2
08:34 44.6 °F 33.1 °F 30.5 in West 5.2 mph 9 mph 63.4% 0 in 306 W/m2
08:39 45.1 °F 32.7 °F 30.5 in West 6.2 mph 10.4 mph 61.3% 0 in 320 W/m2
08:44 45.9 °F 33.3 °F 30.5 in West 4.7 mph 10 mph 61% 0 in 334 W/m2
08:49 46.6 °F 33.4 °F 30.5 in West 5.1 mph 9.2 mph 60.1% 0 in 350 W/m2
08:54 47.3 °F 34 °F 30.5 in West 5.2 mph 8.1 mph 60.1% 0 in 360 W/m2
08:59 47.8 °F 34 °F 30.5 in West 5.8 mph 9.2 mph 58.6% 0 in 376 W/m2
09:04 48.7 °F 34.5 °F 30.5 in West 4.5 mph 9 mph 57.8% 0 in 388 W/m2
09:09 49.5 °F 34.5 °F 30.5 in West 3.9 mph 7 mph 56.3% 0 in 401 W/m2
09:14 49.8 °F 34.7 °F 30.5 in West 4.3 mph 7 mph 56% 0 in 415 W/m2
09:19 50.5 °F 34.5 °F 30.5 in West 5.3 mph 9.2 mph 54.2% 0 in 429 W/m2
09:24 51.1 °F 34 °F 30.5 in WNW 5.7 mph 9 mph 51.7% 0 in 441 W/m2
09:29 51.4 °F 34.2 °F 30.5 in WNW 5.7 mph 8.1 mph 51.4% 0 in 452 W/m2
09:34 52 °F 34.3 °F 30.5 in West 5.2 mph 8.1 mph 51.1% 0 in 466 W/m2
09:39 52.3 °F 34.3 °F 30.5 in West 5.9 mph 9.2 mph 50.2% 0 in 478 W/m2
09:44 52.9 °F 34.9 °F 30.5 in West 6 mph 12 mph 50.3% 0 in 487 W/m2
09:49 53.1 °F 34.7 °F 30.5 in West 7 mph 12 mph 49.6% 0 in 499 W/m2
09:54 53.2 °F 34.3 °F 30.5 in WNW 6.5 mph 12 mph 48.6% 0 in 512 W/m2
09:59 54 °F 34.5 °F 30.5 in West 6.2 mph 10.4 mph 47.4% 0 in 520 W/m2
10:04 54.3 °F 34.3 °F 30.5 in West 7 mph 11.5 mph 46.7% 0 in 531 W/m2
10:09 55 °F 34.7 °F 30.5 in West 5.8 mph 12 mph 46.2% 0 in 541 W/m2
10:14 55.4 °F 34.7 °F 30.5 in West 7 mph 11 mph 45.6% 0 in 550 W/m2
10:19 55.6 °F 33.8 °F 30.5 in West 6.4 mph 12 mph 43.9% 0 in 559 W/m2
10:24 55.9 °F 34.2 °F 30.5 in West 4.2 mph 12 mph 43.8% 0 in 571 W/m2
10:29 56.5 °F 34.9 °F 30.5 in West 4.9 mph 9.2 mph 44.3% 0 in 580 W/m2
10:34 56.7 °F 34.9 °F 30.5 in West 4.9 mph 9 mph 43.8% 0 in 587 W/m2
10:39 56.8 °F 34.9 °F 30.5 in West 4.3 mph 8 mph 43.7% 0 in 594 W/m2
10:44 57.6 °F 34.9 °F 30.5 in WNW 3.8 mph 8 mph 42.2% 0 in 606 W/m2
10:49 57.9 °F 34.9 °F 30.5 in West 5.3 mph 13 mph 41.7% 0 in 615 W/m2
10:54 57.9 °F 34.5 °F 30.5 in WNW 5.3 mph 13 mph 41.3% 0 in 622 W/m2
10:59 58.3 °F 35.1 °F 30.5 in West 3.5 mph 13 mph 41.6% 0 in 628 W/m2
11:04 58.8 °F 34.5 °F 30.5 in West 3.9 mph 9 mph 39.9% 0 in 636 W/m2
11:09 59 °F 34.7 °F 30.5 in West 4 mph 9.2 mph 40% 0 in 645 W/m2
11:14 59 °F 34.3 °F 30.5 in WNW 4.5 mph 9 mph 39.5% 0 in 647 W/m2
11:19 59.4 °F 34.9 °F 30.5 in WNW 4.3 mph 8.1 mph 39.7% 0 in 652 W/m2
11:24 59.5 °F 33.6 °F 30.5 in WNW 5.3 mph 8.1 mph 37.4% 0 in 659 W/m2
11:29 59.7 °F 33.3 °F 30.5 in NW 3.4 mph 8.1 mph 36.9% 0 in 668 W/m2
11:34 60.8 °F 34.2 °F 30.5 in NW 3.4 mph 7 mph 36.7% 0 in 673 W/m2
11:39 61.2 °F 33.4 °F 30.5 in NW 3 mph 7 mph 35.2% 0 in 677 W/m2
11:44 61.5 °F 34.3 °F 30.5 in NW 3.4 mph 8.1 mph 36.1% 0 in 679 W/m2
11:49 62.2 °F 34.5 °F 30.5 in NW 2.8 mph 8 mph 35.6% 0 in 686 W/m2
11:54 62.2 °F 33.8 °F 30.5 in WNW 3.9 mph 7 mph 34.4% 0 in 687 W/m2
11:59 61.7 °F 32.9 °F 30.5 in West 3.4 mph 7 mph 33.7% 0 in 687 W/m2
12:04 61.9 °F 32.4 °F 30.5 in West 2.1 mph 6 mph 32.8% 0 in 693 W/m2
12:09 62.8 °F 33.8 °F 30.5 in WNW 3.5 mph 6 mph 33.8% 0 in 696 W/m2
12:14 62.8 °F 33.3 °F 30.5 in West 3.4 mph 7 mph 33.2% 0 in 696 W/m2
12:19 62.8 °F 33.1 °F 30.5 in NNW 4 mph 7 mph 32.9% 0 in 703 W/m2
12:24 63.3 °F 33.3 °F 30.5 in West 4.7 mph 10.4 mph 32.6% 0 in 700 W/m2
12:29 63.1 °F 32.7 °F 30.5 in West 4.5 mph 10.4 mph 31.8% 0 in 698 W/m2
12:34 63 °F 32.7 °F 30.5 in West 3.9 mph 10 mph 32% 0 in 698 W/m2
12:39 63.5 °F 32.7 °F 30.5 in WNW 4.5 mph 10.4 mph 31.5% 0 in 694 W/m2
12:44 63.3 °F 31.6 °F 30.5 in West 3.9 mph 10 mph 30.4% 0 in 700 W/m2
12:49 63.9 °F 32 °F 30.5 in WNW 4 mph 7 mph 30.2% 0 in 700 W/m2
12:54 64 °F 31.6 °F 30.5 in West 4.8 mph 9.2 mph 29.8% 0 in 698 W/m2
12:59 63.5 °F 31.6 °F 30.5 in West 5 mph 9.2 mph 30.3% 0 in 694 W/m2
13:04 63.5 °F 31.6 °F 30.4 in West 3.9 mph 9 mph 30.4% 0 in 698 W/m2
13:09 63.9 °F 30.7 °F 30.4 in WNW 5 mph 9.2 mph 28.8% 0 in 686 W/m2
13:14 64.8 °F 30 °F 30.4 in NW 3.9 mph 9 mph 27.2% 0 in 684 W/m2
13:19 64.8 °F 30.4 °F 30.4 in WNW 2.9 mph 8.1 mph 27.5% 0 in 684 W/m2
13:24 64.4 °F 31.6 °F 30.4 in WNW 4.2 mph 11.5 mph 29.2% 0 in 680 W/m2
13:29 64 °F 31.8 °F 30.4 in West 3.8 mph 12 mph 29.8% 0 in 671 W/m2
13:34 64 °F 32 °F 30.4 in West 2.9 mph 9 mph 30.2% 0 in 668 W/m2
13:39 64.9 °F 32 °F 30.4 in WSW 5.5 mph 9.2 mph 29.2% 0 in 664 W/m2
13:44 65.1 °F 31.8 °F 30.4 in WSW 5.5 mph 9.2 mph 28.8% 0 in 659 W/m2
13:49 65.3 °F 31.8 °F 30.4 in WSW 4 mph 9.2 mph 28.5% 0 in 656 W/m2
13:54 65.3 °F 31.6 °F 30.4 in SW 3.9 mph 9 mph 28.5% 0 in 650 W/m2
13:59 65.5 °F 31.8 °F 30.4 in SW 4.5 mph 8.1 mph 28.4% 0 in 643 W/m2
14:04 65.5 °F 30.9 °F 30.4 in West 5.1 mph 8.1 mph 27.4% 0 in 638 W/m2
14:09 65.3 °F 30.6 °F 30.4 in West 4 mph 8 mph 27.2% 0 in 633 W/m2
14:14 65.3 °F 30.7 °F 30.4 in West 3.8 mph 8.1 mph 27.3% 0 in 624 W/m2
14:19 65.7 °F 31.6 °F 30.4 in NW 2.1 mph 5.8 mph 28.2% 0 in 615 W/m2
14:24 66 °F 30.9 °F 30.4 in WNW 3.6 mph 8.1 mph 26.9% 0 in 599 W/m2
14:29 66.4 °F 30.4 °F 30.4 in NW 3.9 mph 8.1 mph 26% 0 in 598 W/m2
14:34 66.4 °F 30.2 °F 30.4 in NW 1.9 mph 8 mph 25.9% 0 in 589 W/m2
14:39 66.4 °F 30.2 °F 30.4 in WNW 3 mph 6 mph 25.8% 0 in 585 W/m2
14:44 66.6 °F 30.2 °F 30.4 in North 2.7 mph 6 mph 25.7% 0 in 580 W/m2
14:49 65.8 °F 29.7 °F 30.4 in NE 3.7 mph 6 mph 25.6% 0 in 563 W/m2
14:54 65.8 °F 30 °F 30.4 in NNE 0.7 mph 5 mph 26.1% 0 in 550 W/m2
14:59 66.4 °F 30.6 °F 30.4 in West 2.9 mph 6 mph 26% 0 in 541 W/m2
15:04 66.6 °F 29.8 °F 30.4 in WNW 4 mph 8.1 mph 25.2% 0 in 529 W/m2
15:09 66.2 °F 29.7 °F 30.4 in NNE 1.9 mph 8 mph 25.4% 0 in 520 W/m2
15:14 66.4 °F 30.2 °F 30.4 in WNW 2.8 mph 6 mph 25.8% 0 in 508 W/m2
15:19 66.7 °F 30.9 °F 30.4 in WSW 2.9 mph 6 mph 26.1% 0 in 499 W/m2
15:24 66.9 °F 31.1 °F 30.4 in West 3.4 mph 6 mph 26.3% 0 in 489 W/m2
15:29 66.4 °F 30 °F 30.4 in WSW 4.2 mph 7 mph 25.5% 0 in 475 W/m2
15:34 65.7 °F 28.9 °F 30.4 in SSW 1.8 mph 7 mph 25% 0 in 461 W/m2
15:39 66.2 °F 29.8 °F 30.4 in SW 2.5 mph 7 mph 25.7% 0 in 452 W/m2
15:44 66.9 °F 31.1 °F 30.4 in WSW 3.7 mph 6 mph 26.3% 0 in 436 W/m2
15:49 66.9 °F 30.2 °F 30.4 in WNW 2.4 mph 6 mph 25.2% 0 in 422 W/m2
15:54 66.7 °F 29.7 °F 30.4 in WSW 2.6 mph 5 mph 24.9% 0 in 411 W/m2
15:59 66.4 °F 30.2 °F 30.4 in West 2.2 mph 5.8 mph 25.8% 0 in 403 W/m2
16:04 66.7 °F 31.1 °F 30.4 in WSW 3.4 mph 6 mph 26.4% 0 in 390 W/m2
16:09 66.6 °F 30.7 °F 30.4 in West 3.1 mph 5 mph 26.1% 0 in 376 W/m2
16:14 66.7 °F 30.4 °F 30.4 in West 2.4 mph 5 mph 25.6% 0 in 360 W/m2
16:19 67.1 °F 29.7 °F 30.4 in NW 1.3 mph 4 mph 24.7% 0 in 346 W/m2
16:24 67.1 °F 30.6 °F 30.4 in West 2.4 mph 5 mph 25.5% 0 in 330 W/m2
16:29 66.4 °F 29.5 °F 30.4 in South 1.5 mph 5 mph 25% 0 in 316 W/m2
16:34 66.2 °F 30.4 °F 30.4 in WSW 1.2 mph 5 mph 26.1% 0 in 301 W/m2
16:39 66.4 °F 30 °F 30.4 in West 0.7 mph 4 mph 25.6% 0 in 288 W/m2
16:44 66.6 °F 29.3 °F 30.4 in WNW 3 mph 5 mph 24.6% 0 in 272 W/m2
16:49 66.4 °F 28.9 °F 30.4 in West 2.1 mph 5 mph 24.5% 0 in 258 W/m2
16:54 66.4 °F 30.4 °F 30.4 in West 2.7 mph 5 mph 25.9% 0 in 244 W/m2
16:59 66.7 °F 30 °F 30.4 in WNW 2.3 mph 5 mph 25.2% 0 in 232 W/m2
17:04 66.6 °F 30.6 °F 30.4 in NNW 1.9 mph 4 mph 26.1% 0 in 216 W/m2
17:09 66 °F 29.8 °F 30.4 in NNW 1.7 mph 4 mph 25.7% 0 in 202 W/m2
17:14 65.7 °F 29.1 °F 30.4 in NW 1.5 mph 4 mph 25.3% 0 in 185 W/m2
17:19 65.8 °F 28.9 °F 30.4 in WNW 1.4 mph 4 mph 24.9% 0 in 167 W/m2
17:24 66 °F 29.1 °F 30.4 in North 1.9 mph 4 mph 25% 0 in 149 W/m2
17:29 65.5 °F 29.7 °F 30.4 in North 1.6 mph 4 mph 25.9% 0 in 134 W/m2
17:34 65.1 °F 29.8 °F 30.4 in North 1.4 mph 3.5 mph 26.5% 0 in 120 W/m2
17:39 65.1 °F 29.8 °F 30.4 in North 1.7 mph 4 mph 26.6% 0 in 42 W/m2
17:44 64.9 °F 29.5 °F 30.4 in North 2.4 mph 4 mph 26.4% 0 in 49 W/m2
17:49 64.6 °F 29.3 °F 30.4 in North 1.9 mph 3.5 mph 26.3% 0 in 63 W/m2
17:54 64.6 °F 29.3 °F 30.4 in North 0.9 mph 3 mph 26.5% 0 in 60 W/m2
17:59 64.4 °F 29.7 °F 30.4 in North 1.4 mph 2.3 mph 27% 0 in 49 W/m2
18:04 64.2 °F 30 °F 30.4 in NNW 1.2 mph 2.3 mph 27.7% 0 in 39 W/m2
18:09 63.9 °F 30.2 °F 30.4 in NW 1.2 mph 2.3 mph 28.2% 0 in 32 W/m2
18:14 63.5 °F 30.4 °F 30.4 in NW 0.7 mph 2.3 mph 28.6% 0 in 23 W/m2
18:19 62.6 °F 31.1 °F 30.4 in WNW 1.3 mph 3 mph 30.5% 0 in 14 W/m2
18:24 62.1 °F 31.6 °F 30.4 in WNW 1.7 mph 3.5 mph 31.7% 0 in 11 W/m2
18:29 61.2 °F 31.6 °F 30.4 in WNW 1.1 mph 3 mph 32.9% 0 in 7 W/m2
18:34 60.4 °F 32 °F 30.4 in WNW 0.7 mph 2.3 mph 34.2% 0 in 5 W/m2
18:39 59.7 °F 32 °F 30.4 in West 0.7 mph 2.3 mph 35% 0 in 0 W/m2
18:44 59 °F 32 °F 30.4 in West 1.6 mph 2.3 mph 35.8% 0 in 0 W/m2
18:49 58.5 °F 31.6 °F 30.4 in West 1.7 mph 3 mph 36% 0 in 0 W/m2
18:54 58.3 °F 31.1 °F 30.4 in West 2 mph 3.5 mph 35.5% 0 in 0 W/m2
18:59 58.5 °F 31.3 °F 30.4 in West 1.8 mph 3.5 mph 35.6% 0 in 0 W/m2
19:04 57.7 °F 31.6 °F 30.4 in West 1.2 mph 3 mph 37.1% 0 in 0 W/m2
19:09 57.2 °F 30.9 °F 30.4 in West 1.4 mph 2.3 mph 36.8% 0 in 0 W/m2
19:14 56.7 °F 30.2 °F 30.4 in West 2 mph 3.5 mph 36.4% 0 in 0 W/m2
19:19 56.1 °F 30.2 °F 30.4 in West 2.2 mph 3.5 mph 37% 0 in 0 W/m2
19:24 55.8 °F 30 °F 30.4 in WSW 2.1 mph 3.5 mph 37% 0 in 0 W/m2
19:29 55.6 °F 29.8 °F 30.4 in WSW 1.9 mph 3.5 mph 37.1% 0 in 0 W/m2
19:34 55.2 °F 30 °F 30.4 in WSW 2.2 mph 3.5 mph 38% 0 in 0 W/m2
19:39 54.9 °F 29.7 °F 30.4 in WSW 2.5 mph 3.5 mph 38% 0 in 0 W/m2
19:44 54.7 °F 29.7 °F 30.4 in West 2.7 mph 3.5 mph 38% 0 in 0 W/m2
19:49 54.5 °F 29.5 °F 30.4 in West 2 mph 3.5 mph 38.1% 0 in 0 W/m2
19:54 54 °F 29.7 °F 30.4 in West 1.9 mph 3.5 mph 39.2% 0 in 0 W/m2
19:59 52.9 °F 30 °F 30.4 in West 2.1 mph 3.5 mph 41.4% 0 in 0 W/m2
20:04 52.2 °F 29.8 °F 30.4 in West 1.7 mph 3.5 mph 42% 0 in 0 W/m2
20:09 52 °F 30 °F 30.4 in West 1.9 mph 3.5 mph 42.8% 0 in 0 W/m2
20:14 51.4 °F 29.7 °F 30.4 in West 2.1 mph 3.5 mph 43% 0 in 0 W/m2
20:19 50.9 °F 29.7 °F 30.4 in West 2.1 mph 3.5 mph 43.8% 0 in 0 W/m2
20:24 50.7 °F 30 °F 30.4 in West 1.9 mph 3.5 mph 44.9% 0 in 0 W/m2
20:29 50.5 °F 30 °F 30.4 in West 2.1 mph 3.5 mph 45.2% 0 in 0 W/m2
20:34 50.4 °F 30 °F 30.4 in West 1.7 mph 3.5 mph 45.4% 0 in 0 W/m2
20:39 50.4 °F 30.4 °F 30.4 in West 2 mph 3.5 mph 46.3% 0 in 0 W/m2
20:44 50 °F 30.7 °F 30.4 in West 2 mph 3.5 mph 47.3% 0 in 0 W/m2
20:49 49.5 °F 30.9 °F 30.4 in WNW 1.9 mph 3.5 mph 48.4% 0 in 0 W/m2
20:54 49.1 °F 30.9 °F 30.4 in West 1.7 mph 3.5 mph 49.3% 0 in 0 W/m2
20:59 48.6 °F 30.7 °F 30.4 in West 1.6 mph 3 mph 50% 0 in 0 W/m2
21:04 48.2 °F 31.1 °F 30.4 in West 1.6 mph 2.3 mph 51.2% 0 in 0 W/m2
21:09 48 °F 31.3 °F 30.4 in West 0.9 mph 2.3 mph 52.2% 0 in 0 W/m2
21:14 47.7 °F 31.5 °F 30.4 in West 0.2 mph 2 mph 53.3% 0 in 0 W/m2
21:19 47.3 °F 31.6 °F 30.4 in Calm   1 mph 54% 0 in 0 W/m2
21:24 47.3 °F 31.3 °F 30.4 in Calm     53.7% 0 in 0 W/m2
21:29 47.1 °F 30.7 °F 30.4 in West 1.4 mph 2.3 mph 53% 0 in 0 W/m2
21:34 46.9 °F 30.7 °F 30.4 in West 1.2 mph 2.3 mph 53% 0 in 0 W/m2
21:39 47.1 °F 30.7 °F 30.4 in SW 2.1 mph 4 mph 53% 0 in 0 W/m2
21:44 47.1 °F 30.2 °F 30.4 in SW 3 mph 4 mph 51.7% 0 in 0 W/m2
21:49 46.8 °F 29.5 °F 30.4 in SW 2.6 mph 4 mph 51% 0 in 0 W/m2
21:54 46.6 °F 29.7 °F 30.4 in SW 1.6 mph 4 mph 51.5% 0 in 0 W/m2
21:59 46.8 °F 29.8 °F 30.4 in SW 1.4 mph 3.5 mph 51.2% 0 in 0 W/m2
22:04 46.8 °F 29.8 °F 30.4 in SW 1.3 mph 3 mph 51.6% 0 in 0 W/m2
22:09 46 °F 29.7 °F 30.4 in West 1.9 mph 3.5 mph 52.5% 0 in 0 W/m2
22:14 45.9 °F 29.7 °F 30.4 in West 2.2 mph 3.5 mph 53% 0 in 0 W/m2
22:19 45.9 °F 29.5 °F 30.4 in West 1.7 mph 3.5 mph 52.9% 0 in 0 W/m2
22:24 45.7 °F 29.5 °F 30.4 in West 2 mph 3.5 mph 53% 0 in 0 W/m2
22:29 45.3 °F 29.5 °F 30.4 in West 1.4 mph 3.5 mph 53.7% 0 in 0 W/m2
22:34 45 °F 29.8 °F 30.4 in West 1.1 mph 3 mph 55.2% 0 in 0 W/m2
22:39 44.8 °F 30 °F 30.4 in WNW 1.1 mph 2.3 mph 56% 0 in 0 W/m2
22:44 44.6 °F 30.2 °F 30.4 in WNW 0.9 mph 2.3 mph 56.4% 0 in 0 W/m2
22:49 44.8 °F 30.4 °F 30.4 in WNW 0.9 mph 3.5 mph 57% 0 in 0 W/m2
22:54 44.8 °F 30.2 °F 30.4 in WNW 1.9 mph 3.5 mph 56.4% 0 in 0 W/m2
22:59 44.8 °F 30 °F 30.4 in WNW 2.7 mph 4 mph 56.2% 0 in 0 W/m2
23:04 44.6 °F 29.8 °F 30.4 in WNW 2.6 mph 4 mph 55.9% 0 in 0 W/m2
23:09 44.6 °F 30 °F 30.4 in WNW 1.6 mph 3 mph 56.4% 0 in 0 W/m2
23:14 44.1 °F 29.8 °F 30.4 in WNW 1.2 mph 2.3 mph 57% 0 in 0 W/m2
23:19 43.9 °F 29.7 °F 30.4 in WNW 1.1 mph 2.3 mph 57% 0 in 0 W/m2
23:24 43.7 °F 29.5 °F 30.4 in WNW 1.9 mph 3.5 mph 57% 0 in 0 W/m2
23:29 43.3 °F 29.1 °F 30.4 in WNW 1.9 mph 3 mph 57% 0 in 0 W/m2
23:34 43 °F 28.9 °F 30.4 in WNW 2.1 mph 3.5 mph 57.3% 0 in 0 W/m2
23:39 42.6 °F 28.8 °F 30.4 in WSW 2.7 mph 4 mph 58% 0 in 0 W/m2
23:44 42.3 °F 28.8 °F 30.4 in West 1.9 mph 4 mph 58.4% 0 in 0 W/m2
23:49 42.6 °F 29.1 °F 30.4 in West 1.1 mph 3 mph 58.3% 0 in 0 W/m2
23:54 42.6 °F 28.9 °F 30.4 in WSW 1.9 mph 3.5 mph 58.1% 0 in 0 W/m2
23:59 41.7 °F 28.4 °F 30.4 in WSW 2.2 mph 3.5 mph 59% 0 in 0 W/m2
Stazione Meteorologica MeteoMincio Rivalta s/M (MN)
Con i complimenti di Weather Underground - 4 mb


METEO PILLOLE
Temperatura minima più alta
Khasab (3m) - Oman
Il 27 giugno 2011 il termometro segnò +41.7°c .

Do NOT follow this link or you will be banned from the site!